createdAt,value
2022-10-04T00:02:17.629Z,101342.09
2022-10-04T00:04:51.757Z,101335.06
2022-10-04T00:07:24.088Z,101337.84
2022-10-04T00:10:22.111Z,101344.91
2022-10-04T00:12:59.019Z,101343.25
2022-10-04T00:15:37.513Z,101338.97
2022-10-04T00:18:23.076Z,101343.31
2022-10-04T00:20:55.929Z,101343.38
2022-10-04T00:23:26.380Z,101332.75
2022-10-04T00:26:02.024Z,101334.53
2022-10-04T00:28:36.747Z,101316.25
2022-10-04T00:31:14.330Z,101324.75
2022-10-04T00:33:44.095Z,101333.66
2022-10-04T00:36:23.867Z,101332.81
2022-10-04T00:39:09.021Z,101332.00
2022-10-04T00:41:47.996Z,101340.06
2022-10-04T00:44:34.884Z,101327.09
2022-10-04T00:47:13.143Z,101331.25
2022-10-04T00:49:45.261Z,101322.03
2022-10-04T00:52:25.758Z,101342.91
2022-10-04T00:55:08.584Z,101337.72
2022-10-04T00:57:44.979Z,101344.84
2022-10-04T01:00:15.179Z,101336.13
2022-10-04T01:02:43.380Z,101334.38
2022-10-04T01:05:17.892Z,101332.81
2022-10-04T01:07:48.568Z,101331.06
2022-10-04T01:10:25.491Z,101336.50
2022-10-04T01:13:15.505Z,101337.66
2022-10-04T01:15:57.017Z,101333.34
2022-10-04T01:18:24.082Z,101348.47
2022-10-04T01:21:16.977Z,101349.56
2022-10-04T01:23:54.416Z,101343.50
2022-10-04T01:26:30.503Z,101340.09
2022-10-04T01:29:00.695Z,101342.03
2022-10-04T01:31:29.496Z,101320.28
2022-10-04T01:33:57.385Z,101332.38
2022-10-04T01:36:24.468Z,101332.50
2022-10-04T01:38:51.757Z,101331.81
2022-10-04T01:41:22.604Z,101322.25
2022-10-04T01:43:55.400Z,101332.94
2022-10-04T01:46:35.204Z,101336.66
2022-10-04T01:49:10.049Z,101334.19
2022-10-04T01:51:44.273Z,101332.56
2022-10-04T01:54:20.166Z,101328.25
2022-10-04T01:56:59.362Z,101335.53
2022-10-04T01:59:52.468Z,101331.28
2022-10-04T02:02:46.407Z,101321.88
2022-10-04T02:05:18.201Z,101323.88
2022-10-04T02:07:46.604Z,101325.66
2022-10-04T02:10:20.126Z,101334.69
2022-10-04T02:12:49.520Z,101313.13
2022-10-04T02:15:20.190Z,101329.63
2022-10-04T02:17:48.788Z,101321.75
2022-10-04T02:20:20.131Z,101325.44
2022-10-04T02:22:51.788Z,101319.31
2022-10-04T02:25:20.490Z,101322.13
2022-10-04T02:27:47.697Z,101323.13
2022-10-04T02:30:14.836Z,101322.31
2022-10-04T02:33:00.375Z,101316.28
2022-10-04T02:35:31.705Z,101319.13
2022-10-04T02:38:02.812Z,101310.31
2022-10-04T02:40:39.562Z,101311.31
2022-10-04T02:43:16.632Z,101304.44
2022-10-04T02:45:52.613Z,101307.28
2022-10-04T02:48:30.088Z,101294.22
2022-10-04T02:51:06.887Z,101286.44
2022-10-04T02:53:41.400Z,101299.59
2022-10-04T02:56:12.239Z,101307.69
2022-10-04T02:58:41.025Z,101293.03
2022-10-04T03:01:15.831Z,101307.03
2022-10-04T03:03:46.496Z,101276.72
2022-10-04T03:06:20.676Z,101296.66
2022-10-04T03:08:59.170Z,101302.94
2022-10-04T03:11:31.739Z,101297.94
2022-10-04T03:14:01.115Z,101291.81
2022-10-04T03:16:35.599Z,101277.16
2022-10-04T03:19:03.793Z,101285.78
2022-10-04T03:21:32.651Z,101283.25
2022-10-04T03:24:01.145Z,101272.88
2022-10-04T03:26:42.615Z,101280.84
2022-10-04T03:29:12.282Z,101274.75
2022-10-04T03:31:46.523Z,101268.78
2022-10-04T03:34:16.809Z,101264.31
2022-10-04T03:36:45.494Z,101266.19
2022-10-04T03:39:27.510Z,101274.25
2022-10-04T03:41:54.855Z,101276.25
2022-10-04T03:44:23.308Z,101267.41
2022-10-04T03:46:50.332Z,101264.09
2022-10-04T03:49:29.992Z,101262.41
2022-10-04T03:51:59.094Z,101258.09
2022-10-04T03:54:28.089Z,101262.56
2022-10-04T03:56:56.756Z,101268.84
2022-10-04T03:59:26.411Z,101260.94
2022-10-04T04:02:16.271Z,101255.81
2022-10-04T04:05:14.287Z,101261.22
2022-10-04T04:07:48.541Z,101252.63
2022-10-04T04:10:23.495Z,101252.72
2022-10-04T04:13:12.116Z,101252.00
2022-10-04T04:15:43.477Z,101219.97
2022-10-04T04:18:20.811Z,101252.28
2022-10-04T04:20:50.144Z,101249.72
2022-10-04T04:23:32.976Z,101256.06
2022-10-04T04:26:35.307Z,101248.22
2022-10-04T04:29:11.119Z,101242.16
2022-10-04T04:32:05.840Z,101243.97
2022-10-04T04:35:04.587Z,101245.00
2022-10-04T04:37:51.609Z,101243.34
2022-10-04T04:40:44.692Z,101243.50
2022-10-04T04:43:38.164Z,101240.03
2022-10-04T04:46:29.165Z,101243.69
2022-10-04T04:49:23.223Z,101252.66
2022-10-04T04:52:11.816Z,101251.03
2022-10-04T04:54:58.984Z,101245.88
2022-10-04T04:57:46.025Z,101254.75
2022-10-04T05:00:41.777Z,101248.72
2022-10-04T05:03:38.753Z,101243.53
2022-10-04T05:06:42.024Z,101245.25
2022-10-04T05:09:48.405Z,101253.28
2022-10-04T05:12:41.997Z,101242.75
2022-10-04T05:15:29.965Z,101238.38
2022-10-04T05:18:17.068Z,101242.75
2022-10-04T05:21:10.236Z,101241.97
2022-10-04T05:23:57.669Z,101243.63
2022-10-04T05:26:50.894Z,101228.66
2022-10-04T05:29:41.556Z,101235.00
2022-10-04T05:32:49.546Z,101240.00
2022-10-04T05:35:42.585Z,101237.38
2022-10-04T05:38:39.616Z,101250.50
2022-10-04T05:41:41.926Z,101218.34
2022-10-04T05:44:43.038Z,101247.81
2022-10-04T05:47:33.858Z,101244.19
2022-10-04T05:50:21.042Z,101244.22
2022-10-04T05:53:11.580Z,101247.66
2022-10-04T05:56:16.385Z,101258.09
2022-10-04T05:59:24.477Z,101256.25
2022-10-04T06:02:42.397Z,101262.34
2022-10-04T06:05:37.392Z,101243.38
2022-10-04T06:08:38.915Z,101267.47
2022-10-04T06:11:34.243Z,101262.97
2022-10-04T06:14:21.204Z,101269.06
2022-10-04T06:17:23.228Z,101258.47
2022-10-04T06:20:24.759Z,101254.81
2022-10-04T06:23:19.005Z,101261.00
2022-10-04T06:26:31.621Z,101253.00
2022-10-04T06:29:23.521Z,101248.59
2022-10-04T06:32:47.826Z,101246.78
2022-10-04T06:35:59.480Z,101235.28
2022-10-04T06:39:08.065Z,101237.88
2022-10-04T06:42:13.398Z,101241.31
2022-10-04T06:45:29.940Z,101241.31
2022-10-04T06:48:37.920Z,101245.69
2022-10-04T06:51:39.718Z,101248.28
2022-10-04T06:54:52.215Z,101247.28
2022-10-04T06:57:51.659Z,101245.47
2022-10-04T07:00:53.683Z,101247.97
2022-10-04T07:03:51.571Z,101249.63
2022-10-04T07:06:48.469Z,101256.63
2022-10-04T07:09:47.919Z,101247.13
2022-10-04T07:12:36.474Z,101275.84
2022-10-04T07:15:36.627Z,101274.97
2022-10-04T07:18:33.142Z,101273.97
2022-10-04T07:21:29.668Z,101273.09
2022-10-04T07:24:23.968Z,101269.38
2022-10-04T07:27:13.308Z,101257.25
2022-10-04T07:30:03.306Z,101257.97
2022-10-04T07:32:54.495Z,101269.97
2022-10-04T07:36:18.645Z,101282.22
2022-10-04T07:39:13.947Z,101274.09
2022-10-04T07:42:09.336Z,101277.50
2022-10-04T07:44:59.255Z,101271.41
2022-10-04T07:47:47.050Z,101272.91
2022-10-04T07:50:46.485Z,101275.31
2022-10-04T07:53:41.120Z,101282.22
2022-10-04T07:56:44.985Z,101288.25
2022-10-04T07:59:53.251Z,101281.81
2022-10-04T08:02:43.850Z,101279.00
2022-10-04T08:05:46.121Z,101277.91
2022-10-04T08:09:03.904Z,101275.94
2022-10-04T08:12:03.032Z,101271.22
2022-10-04T08:14:59.088Z,101272.72
2022-10-04T08:18:21.379Z,101276.94
2022-10-04T08:21:18.803Z,101278.44
2022-10-04T08:24:17.935Z,101282.63
2022-10-04T08:27:10.561Z,101274.44
2022-10-04T08:30:03.704Z,101271.56
2022-10-04T08:33:13.640Z,101278.41
2022-10-04T08:36:08.977Z,101266.63
2022-10-04T08:39:10.041Z,101238.84
2022-10-04T08:42:15.487Z,101268.75
2022-10-04T08:45:59.577Z,101262.22
2022-10-04T08:49:17.142Z,101256.66
2022-10-04T08:52:22.059Z,101263.50
2022-10-04T08:55:32.084Z,101265.06
2022-10-04T08:58:46.424Z,101264.88
2022-10-04T09:02:05.021Z,101263.72
2022-10-04T09:05:29.900Z,101270.59
2022-10-04T09:08:34.740Z,101258.16
2022-10-04T09:11:49.395Z,101262.31
2022-10-04T09:14:58.020Z,101251.41
2022-10-04T09:17:47.814Z,101252.06
2022-10-04T09:20:47.292Z,101265.97
2022-10-04T09:23:49.479Z,101263.97
2022-10-04T09:26:44.720Z,101266.50
2022-10-04T09:29:57.036Z,101259.22
2022-10-04T09:32:51.125Z,101264.31
2022-10-04T09:35:50.346Z,101258.81
2022-10-04T09:39:25.088Z,101255.06
2022-10-04T09:42:26.894Z,101251.31
2022-10-04T09:45:25.920Z,101253.00
2022-10-04T09:48:38.708Z,101245.69
2022-10-04T09:52:17.082Z,101251.66
2022-10-04T09:55:20.770Z,101259.34
2022-10-04T09:58:26.057Z,101255.78
2022-10-04T10:01:22.014Z,101259.00
2022-10-04T10:04:27.007Z,101261.53
2022-10-04T10:07:45.509Z,101263.97
2022-10-04T10:10:42.278Z,101266.50
2022-10-04T10:13:38.581Z,101260.19
2022-10-04T10:16:46.700Z,101256.44
2022-10-04T10:19:52.684Z,101250.06
2022-10-04T10:22:51.668Z,101253.34
2022-10-04T10:26:20.092Z,101257.56
2022-10-04T10:29:36.072Z,101254.69
2022-10-04T10:32:41.459Z,101260.56
2022-10-04T10:35:48.159Z,101264.75
2022-10-04T10:38:35.037Z,101254.91
2022-10-04T10:41:43.256Z,101259.19
2022-10-04T10:44:36.079Z,101262.66
2022-10-04T10:47:25.839Z,101256.34
2022-10-04T10:50:23.212Z,101267.81
2022-10-04T10:53:46.770Z,101265.00
2022-10-04T10:56:51.716Z,101263.91
2022-10-04T11:00:07.729Z,101268.13
2022-10-04T11:03:13.071Z,101259.16
2022-10-04T11:06:25.655Z,101257.22
2022-10-04T11:09:21.853Z,101257.06
2022-10-04T11:12:35.968Z,101252.41
2022-10-04T11:16:01.702Z,101251.34
2022-10-04T11:19:38.707Z,101251.13
2022-10-04T11:22:28.889Z,101241.16
2022-10-04T11:25:27.656Z,101232.09
2022-10-04T11:28:35.163Z,101229.19
2022-10-04T11:31:33.523Z,101223.63
2022-10-04T11:34:53.003Z,101220.72
2022-10-04T11:38:01.561Z,101215.16
2022-10-04T11:41:13.277Z,101212.19
2022-10-04T11:44:18.047Z,101210.16
2022-10-04T11:47:41.762Z,101206.31
2022-10-04T11:50:46.741Z,101205.97
2022-10-04T11:53:58.801Z,101203.06
2022-10-04T11:57:23.200Z,101195.00
2022-10-04T12:00:22.521Z,101194.84
2022-10-04T12:03:27.790Z,101200.88
2022-10-04T12:06:40.174Z,101197.19
2022-10-04T12:09:36.667Z,101195.22
2022-10-04T12:12:31.147Z,101189.72
2022-10-04T12:15:57.191Z,101191.44
2022-10-04T12:18:53.192Z,101186.97
2022-10-04T12:22:03.271Z,101195.84
2022-10-04T12:25:02.717Z,101191.34
2022-10-04T12:28:20.988Z,101195.94
2022-10-04T12:31:27.255Z,101187.13
2022-10-04T12:34:23.257Z,101189.81
2022-10-04T12:37:13.112Z,101188.00
2022-10-04T12:40:11.666Z,101204.78
2022-10-04T12:43:04.622Z,101194.91
2022-10-04T12:46:14.544Z,101190.50
2022-10-04T12:49:20.186Z,101196.00
2022-10-04T12:52:07.034Z,101199.69
2022-10-04T12:55:02.810Z,101193.59
2022-10-04T12:58:01.915Z,101189.19
2022-10-04T13:01:00.069Z,101186.44
2022-10-04T13:04:21.340Z,101191.69
2022-10-04T13:07:34.306Z,101194.28
2022-10-04T13:10:29.934Z,101191.53
2022-10-04T13:13:38.813Z,101188.00
2022-10-04T13:19:52.552Z,101198.53
2022-10-04T13:23:13.833Z,101195.78
2022-10-04T13:26:07.349Z,101200.84
2022-10-04T13:29:18.700Z,101198.94
2022-10-04T13:32:05.941Z,101197.69
2022-10-04T13:34:59.014Z,101202.72
2022-10-04T13:37:52.983Z,101202.38
2022-10-04T13:40:45.755Z,101195.91
2022-10-04T13:44:17.300Z,101202.75
2022-10-04T13:47:30.267Z,101183.19
2022-10-04T13:50:35.101Z,101200.44
2022-10-04T13:53:39.055Z,101197.63
2022-10-04T13:56:41.081Z,101183.41
2022-10-04T13:59:52.917Z,101185.03
2022-10-04T14:03:12.172Z,101191.97
2022-10-04T14:06:21.036Z,101184.78
2022-10-04T14:09:33.607Z,101166.56
2022-10-04T14:12:45.728Z,101178.59
2022-10-04T14:16:13.151Z,101177.56
2022-10-04T14:19:21.181Z,101180.06
2022-10-04T14:22:24.896Z,101187.03
2022-10-04T14:25:49.336Z,101187.81
2022-10-04T14:29:07.267Z,101179.81
2022-10-04T14:32:20.629Z,101175.34
2022-10-04T14:35:14.981Z,101178.94
2022-10-04T14:38:25.834Z,101173.69
2022-10-04T14:41:44.397Z,101178.25
2022-10-04T14:44:53.778Z,101172.91
2022-10-04T14:48:01.759Z,101173.84
2022-10-04T14:50:51.435Z,101173.94
2022-10-04T14:53:56.359Z,101175.75
2022-10-04T14:56:56.203Z,101170.50
2022-10-04T15:00:04.849Z,101169.72
2022-10-04T15:02:51.764Z,101170.69
2022-10-04T15:06:01.365Z,101168.19
2022-10-04T15:09:10.006Z,101170.94
2022-10-04T15:12:32.701Z,101162.97
2022-10-04T15:15:34.285Z,101159.59
2022-10-04T15:18:30.272Z,101164.06
2022-10-04T15:21:40.157Z,101165.91
2022-10-04T15:24:36.203Z,101167.69
2022-10-04T15:27:44.539Z,101165.13
2022-10-04T15:30:55.010Z,101161.66
2022-10-04T15:34:15.375Z,101164.41
2022-10-04T15:37:33.082Z,101150.38
2022-10-04T15:40:53.611Z,101156.75
2022-10-04T15:43:46.794Z,101155.13
2022-10-04T15:46:56.555Z,101157.00
2022-10-04T15:50:15.127Z,101153.44
2022-10-04T15:53:19.962Z,101143.03
2022-10-04T15:56:47.943Z,101144.78
2022-10-04T15:59:51.817Z,101140.38
2022-10-04T16:02:43.011Z,101130.66
2022-10-04T16:05:38.844Z,101139.59
2022-10-04T16:08:34.739Z,101136.06
2022-10-04T16:11:45.753Z,101135.38
2022-10-04T16:14:57.595Z,101137.19
2022-10-04T16:18:12.341Z,101133.72
2022-10-04T16:21:10.735Z,101126.78
2022-10-04T16:23:59.656Z,101127.69
2022-10-04T16:26:47.050Z,101130.38
2022-10-04T16:30:21.834Z,101126.91
2022-10-04T16:33:18.989Z,101128.91
2022-10-04T16:36:28.686Z,101128.91
2022-10-04T16:39:19.391Z,101119.56
2022-10-04T16:41:57.859Z,101121.41
2022-10-04T16:44:55.042Z,101126.47
2022-10-04T16:47:49.441Z,101140.66
2022-10-04T16:51:08.068Z,101126.66
2022-10-04T16:54:13.433Z,101136.63
2022-10-04T16:57:18.261Z,101128.78
2022-10-04T17:00:09.249Z,101120.84
2022-10-04T17:03:02.075Z,101119.97
2022-10-04T17:05:54.980Z,101118.34
2022-10-04T17:08:45.466Z,101115.78
2022-10-04T17:11:50.347Z,101100.34
2022-10-04T17:15:04.142Z,101102.94
2022-10-04T17:18:04.651Z,101070.78
2022-10-04T17:21:00.933Z,101099.47
2022-10-04T17:23:50.497Z,101099.56
2022-10-04T17:27:08.605Z,101092.59
2022-10-04T17:30:07.436Z,101080.19
2022-10-04T17:33:00.850Z,101076.75
2022-10-04T17:36:15.654Z,101072.44
2022-10-04T17:39:28.115Z,101074.34
2022-10-04T17:42:41.924Z,101071.75
2022-10-04T17:46:01.771Z,101067.50
2022-10-04T17:49:00.751Z,101064.00
2022-10-04T17:52:09.712Z,101062.34
2022-10-04T17:54:55.501Z,101065.97
2022-10-04T17:58:03.121Z,101061.66
2022-10-04T18:01:27.094Z,101063.44
2022-10-04T18:04:27.231Z,101059.16
2022-10-04T18:07:38.955Z,101054.75
2022-10-04T18:10:38.735Z,101060.25
2022-10-04T18:13:42.504Z,101063.06
2022-10-04T18:16:40.209Z,101059.53
2022-10-04T18:19:55.426Z,101056.19
2022-10-04T18:22:48.716Z,101053.59
2022-10-04T18:25:41.605Z,101028.59
2022-10-04T18:28:28.879Z,101041.44
2022-10-04T18:31:19.847Z,101047.88
2022-10-04T18:34:10.504Z,101042.63
2022-10-04T18:37:46.203Z,101041.84
2022-10-04T18:40:42.617Z,101043.84
2022-10-04T18:43:44.693Z,101043.91
2022-10-04T18:46:37.656Z,101036.00
2022-10-04T18:49:41.123Z,101037.88
2022-10-04T18:52:30.956Z,101035.22
2022-10-04T18:55:40.487Z,101036.19
2022-10-04T18:58:32.267Z,101024.72
2022-10-04T19:01:33.351Z,101022.22
2022-10-04T19:04:27.503Z,101022.13
2022-10-04T19:07:38.380Z,101018.59
2022-10-04T19:10:39.494Z,101011.56
2022-10-04T19:13:49.727Z,101016.88
2022-10-04T19:16:36.643Z,101006.22
2022-10-04T19:19:49.317Z,100988.81
2022-10-04T19:22:45.257Z,101004.47
2022-10-04T19:25:37.973Z,100993.06
2022-10-04T19:28:42.180Z,100993.97
2022-10-04T19:31:38.130Z,100998.56
2022-10-04T19:34:40.480Z,100990.66
2022-10-04T19:37:45.760Z,100989.84
2022-10-04T19:40:58.512Z,100991.72
2022-10-04T19:43:59.191Z,100982.03
2022-10-04T19:47:04.722Z,100982.03
2022-10-04T19:50:12.972Z,100979.41
2022-10-04T19:53:09.100Z,100980.34
2022-10-04T19:56:15.899Z,100981.28
2022-10-04T19:59:07.336Z,100982.22
2022-10-04T20:01:54.332Z,100980.53
2022-10-04T20:04:56.365Z,100979.72
2022-10-04T20:07:47.777Z,100980.69
2022-10-04T20:10:41.324Z,100980.75
2022-10-04T20:13:31.201Z,100964.00
2022-10-04T20:16:18.370Z,100962.28
2022-10-04T20:19:16.750Z,100967.72
2022-10-04T20:22:04.084Z,100977.47
2022-10-04T20:24:57.033Z,100974.88
2022-10-04T20:27:43.796Z,100967.81
2022-10-04T20:30:34.991Z,100947.06
2022-10-04T20:33:25.350Z,100969.63
2022-10-04T20:36:21.783Z,100954.56
2022-10-04T20:39:12.972Z,100957.25
2022-10-04T20:42:02.143Z,100949.34
2022-10-04T20:45:13.215Z,100942.38
2022-10-04T20:48:05.076Z,100945.91
2022-10-04T20:50:56.701Z,100944.25
2022-10-04T20:53:46.286Z,100938.91
2022-10-04T20:56:45.426Z,100938.09
2022-10-04T20:59:35.816Z,100924.84
2022-10-04T21:02:24.259Z,100914.38
2022-10-04T21:05:11.346Z,100910.66
2022-10-04T21:07:58.140Z,100907.13
2022-10-04T21:10:45.024Z,100898.31
2022-10-04T21:14:08.189Z,100896.66
2022-10-04T21:17:02.703Z,100890.66
2022-10-04T21:19:53.010Z,100892.44
2022-10-04T21:22:39.886Z,100889.84
2022-10-04T21:25:49.024Z,100881.09
2022-10-04T21:28:53.538Z,100885.72
2022-10-04T21:31:40.658Z,100872.41
2022-10-04T21:34:51.530Z,100862.69
2022-10-04T21:37:34.982Z,100860.97
2022-10-04T21:40:22.437Z,100863.72
2022-10-04T21:43:09.339Z,100865.59
2022-10-04T21:45:56.387Z,100858.56
2022-10-04T21:48:43.704Z,100854.06
2022-10-04T21:51:30.670Z,100853.25
2022-10-04T21:54:17.585Z,100853.25
2022-10-04T21:57:04.832Z,100829.22
2022-10-04T21:59:51.716Z,100854.16
2022-10-04T22:02:38.729Z,100839.94
2022-10-04T22:05:26.016Z,100837.28
2022-10-04T22:08:13.075Z,100834.59
2022-10-04T22:11:00.014Z,100824.38
2022-10-04T22:13:46.967Z,100819.47
2022-10-04T22:16:34.072Z,100825.75
2022-10-04T22:19:21.145Z,100814.31
2022-10-04T22:22:08.017Z,100811.50
2022-10-04T22:24:56.177Z,100808.75
2022-10-04T22:27:43.184Z,100809.53
2022-10-04T22:30:42.365Z,100801.56
2022-10-04T22:33:47.285Z,100801.47
2022-10-04T22:37:03.469Z,100799.69
2022-10-04T22:39:52.680Z,100786.38
2022-10-04T22:42:40.912Z,100791.53
2022-10-04T22:45:39.459Z,100780.91
2022-10-04T22:48:15.455Z,100767.50
2022-10-04T22:50:43.156Z,100762.09
2022-10-04T22:53:23.376Z,100756.78
2022-10-04T22:55:51.949Z,100748.72
2022-10-04T22:58:21.091Z,100747.75
2022-10-04T23:00:49.411Z,100748.53
2022-10-04T23:03:31.507Z,100743.22
2022-10-04T23:06:03.081Z,100726.28
2022-10-04T23:08:30.796Z,100723.72
2022-10-04T23:10:59.376Z,100715.47
2022-10-04T23:13:27.544Z,100714.56
2022-10-04T23:15:59.108Z,100706.56
2022-10-04T23:18:27.000Z,100708.19
2022-10-04T23:21:01.152Z,100707.31
2022-10-04T23:23:30.953Z,100713.44
2022-10-04T23:25:57.897Z,100706.31
2022-10-04T23:28:25.284Z,100710.69
2022-10-04T23:31:06.316Z,100700.13
2022-10-04T23:33:33.378Z,100698.16
2022-10-04T23:36:00.502Z,100696.41
2022-10-04T23:38:29.353Z,100704.22
2022-10-04T23:40:56.432Z,100708.63
2022-10-04T23:43:25.721Z,100705.00
2022-10-04T23:45:54.834Z,100703.31
2022-10-04T23:48:27.413Z,100700.56
2022-10-04T23:50:56.192Z,100693.41
2022-10-04T23:53:26.857Z,100683.53
2022-10-04T23:56:01.595Z,100688.88
2022-10-04T23:58:40.957Z,100694.19
